Погода Сиди-Ифнина неделю

Агадир, Марокко

28 февраля-05 марта
  • 28февраля
    Сегодня
    +13°
    +20°
    Ясно и безоблачно
    ВремяПогодаТемператураВлажностьДавлениеВетер, м/сВероятность осадков
    01:00Ясно и безоблачно+15°C70 %750 мм4.4 м/с2 %
    04:00Ясно и безоблачно+14°C77 %750 мм3.6 м/с2 %
    07:00Ясно и безоблачно+14°C76 %750 мм2.8 м/с2 %
    10:00Ясно и безоблачно+16°C68 %752 мм1.4 м/с2 %
    13:00Ясно и безоблачно+18°C61 %752 мм2.5 м/с2 %
    16:00Ясно и безоблачно+19°C56 %751 мм2.9 м/с2 %
    19:00Ясно и безоблачно+18°C59 %751 мм3.2 м/с2 %
    22:00Ясно и безоблачно+16°C79 %751 мм1.9 м/с2 %
  • 29февраля
    Четверг
    +14°
    +19°
    Ясно и безоблачно
    ВремяПогодаТемператураВлажностьДавлениеВетер, м/сВероятность осадков
    01:00Ясно и безоблачно+15°C84 %751 мм1.7 м/с2 %
    04:00Ясно и безоблачно+15°C81 %750 мм1.8 м/с2 %
    07:00Ясно и безоблачно+14°C78 %749 мм2.0 м/с2 %
    10:00Ясно и безоблачно+16°C64 %751 мм2.0 м/с2 %
    13:00Ясно и безоблачно+19°C62 %751 мм2.5 м/с2 %
    16:00Ясно и безоблачно+18°C70 %750 мм3.0 м/с2 %
    19:00Ясно и безоблачно+18°C67 %749 мм2.5 м/с2 %
    22:00Ясно и безоблачно+16°C72 %750 мм1.5 м/с2 %
  • 01марта
    Пятница
    +15°
    +20°
    Облачно с прояснениями
    ВремяПогодаТемператураВлажностьДавлениеВетер, м/сВероятность осадков
    01:00Облачно с прояснениями+16°C76 %750 мм1.9 м/с2 %
    04:00Облачно с прояснениями+15°C77 %748 мм2.0 м/с2 %
    07:00Облачно с прояснениями+15°C72 %748 мм2.0 м/с2 %
    10:00Облачно с прояснениями+17°C65 %750 мм1.3 м/с2 %
    13:00Облачно с прояснениями+19°C61 %750 мм2.5 м/с2 %
    16:00Облачно с прояснениями+19°C69 %748 мм2.9 м/с2 %
    19:00Облачно с прояснениями+18°C70 %747 мм2.1 м/с2 %
    22:00Облачно с прояснениями+17°C73 %748 мм1.4 м/с2 %
  • 02марта
    Суббота
    +14°
    +20°
    Облачно с прояснениями
    ВремяПогодаТемператураВлажностьДавлениеВетер, м/сВероятность осадков
    01:00Пасмурно, сплошная облачность+17°C76 %748 мм1.9 м/с2 %
    04:00Облачно с прояснениями+16°C81 %748 мм2.3 м/с2 %
    07:00Облачно с прояснениями+16°C85 %748 мм2.3 м/с3 %
    10:00Практически безоблачно+17°C76 %749 мм1.8 м/с4 %
    13:00Облачно с прояснениями+19°C64 %749 мм2.8 м/с6 %
    16:00Облачно с прояснениями+19°C76 %748 мм3.1 м/с7 %
    19:00Практически безоблачно+18°C74 %749 мм2.8 м/с5 %
    22:00Практически безоблачно+16°C76 %751 мм3.2 м/с15 %
  • 03марта
    Воскресенье
    +14°
    +19°
    Ясно и безоблачно
    ВремяПогодаТемператураВлажностьДавлениеВетер, м/сВероятность осадков
    01:00Ясно и безоблачно+16°C78 %751 мм3.6 м/с26 %
    04:00Ясно и безоблачно+15°C73 %750 мм3.9 м/с21 %
    07:00Ясно и безоблачно+15°C74 %751 мм3.9 м/с16 %
    10:00Ясно и безоблачно+16°C65 %752 мм4.1 м/с9 %
    13:00Ясно и безоблачно+18°C58 %752 мм4.1 м/с3 %
    16:00Ясно и безоблачно+19°C62 %751 мм4.3 м/с3 %
    19:00Практически безоблачно+17°C75 %751 мм4.0 м/с8 %
    22:00Небольшая облачность+16°C81 %752 мм2.9 м/с17 %
Мы используем cookies
Соглашаюсь